This is the latest recevied weather packets stored in our database for station/object KD4WLE. If no packets are shown the sender has not sent any weather packets the latest 10 day(s).
| Time | Temp. | Humidity | Pressure | Rain* | Wind** | Luminosity | Snow |
|---|---|---|---|---|---|---|---|
| 1777214802 | 27.78° C | 74% | 1013.2 hPa | 0 mm | - | 630 W/m² | - |
| 1777214497 | 27.78° C | 74% | 1012.9 hPa | 0 mm | - | 603 W/m² | - |
| 1777214192 | 27.78° C | 75% | 1013.1 hPa | 0 mm | - | 610 W/m² | - |
| 1777213892 | 27.22° C | 76% | 1012.9 hPa | 0 mm | - | 562 W/m² | - |
| 1777213586 | 27.22° C | 77% | 1013.1 hPa | 0 mm | - | 527 W/m² | - |
| 1777213283 | 26.11° C | 80% | 1012.9 hPa | 0 mm | - | 505 W/m² | - |
| 1777212979 | 26.67° C | 79% | 1012.9 hPa | 0 mm | - | 488 W/m² | - |
| 1777212678 | 26.67° C | 80% | 1013 hPa | 0 mm | - | 476 W/m² | - |
| 1777212376 | 27.22° C | 77% | 1012.9 hPa | 0 mm | - | 461 W/m² | - |
| 1777212072 | 26.11° C | 80% | 1013 hPa | 0 mm | - | 445 W/m² | - |
| 1777211768 | 26.11° C | 80% | 1012.9 hPa | 0 mm | - | 430 W/m² | - |
| 1777211466 | 25.56° C | 82% | 1012.9 hPa | 0 mm | - | 414 W/m² | - |
| 1777211163 | 26.11° C | 81% | 1012.9 hPa | 0 mm | - | 396 W/m² | - |
| 1777210859 | 25.56° C | 83% | 1013 hPa | 0 mm | - | 383 W/m² | - |
| 1777210558 | 25° C | 84% | 1012.9 hPa | 0 mm | - | 366 W/m² | - |
| 1777210256 | 25° C | 85% | 1012.9 hPa | 0 mm | - | 350 W/m² | - |
| 1777209951 | 24.44° C | 86% | 1012.9 hPa | 0 mm | - | 334 W/m² | - |
| 1777209646 | 24.44° C | 85% | 1012.9 hPa | 0 mm | - | 315 W/m² | - |
| 1777209343 | 23.89° C | 87% | 1012.8 hPa | 0 mm | - | 302 W/m² | - |
| 1777209039 | 23.89° C | 88% | 1012.9 hPa | 0 mm | - | 286 W/m² | - |
| 1777208736 | 23.89° C | 87% | 1013 hPa | 0 mm | - | 268 W/m² | - |
| 1777208433 | 23.33° C | 88% | 1013 hPa | 0 mm | - | 256 W/m² | - |
| 1777208129 | 23.33° C | 89% | 1012.8 hPa | 0 mm | - | 240 W/m² | - |
| 1777207829 | 23.33° C | 89% | 1012.7 hPa | 0 mm | - | 224 W/m² | - |
| 1777207524 | 23.33° C | 90% | 1012.9 hPa | 0 mm | - | 208 W/m² | - |
* Rain latest hour (hover to see other rain measurements)
** Current wind speed in m/s (hover to see current wind gust speed)